sensor_id;sensor_type;location;lat;lon;timestamp;pressure;altitude;pressure_sealevel;temperature;humidity
10006;BME280;5042;42.626;23.382;2023-07-13T00:01:15;94680.88;;;22.38;100.00
10006;BME280;5042;42.626;23.382;2023-07-13T00:03:42;94660.50;;;22.32;97.42
10006;BME280;5042;42.626;23.382;2023-07-13T00:06:09;94672.84;;;22.38;100.00
10006;BME280;5042;42.626;23.382;2023-07-13T00:08:36;94668.06;;;22.40;100.00
10006;BME280;5042;42.626;23.382;2023-07-13T00:11:03;94663.81;;;22.44;100.00
10006;BME280;5042;42.626;23.382;2023-07-13T00:13:32;94675.56;;;22.43;100.00
10006;BME280;5042;42.626;23.382;2023-07-13T00:15:58;94672.31;;;22.36;95.88
10006;BME280;5042;42.626;23.382;2023-07-13T00:18:27;94662.63;;;22.30;99.50
10006;BME280;5042;42.626;23.382;2023-07-13T00:20:55;94665.78;;;22.22;100.00
10006;BME280;5042;42.626;23.382;2023-07-13T00:23:30;94656.97;;;22.21;100.00
10006;BME280;5042;42.626;23.382;2023-07-13T00:25:59;94674.41;;;22.02;100.00
10006;BME280;5042;42.626;23.382;2023-07-13T00:28:26;94668.63;;;21.83;100.00
10006;BME280;5042;42.626;23.382;2023-07-13T00:30:52;94666.91;;;21.72;100.00
10006;BME280;5042;42.626;23.382;2023-07-13T00:33:19;94661.00;;;21.70;100.00
10006;BME280;5042;42.626;23.382;2023-07-13T00:35:48;94658.53;;;21.63;100.00
10006;BME280;5042;42.626;23.382;2023-07-13T00:38:15;94640.19;;;21.45;100.00
10006;BME280;5042;42.626;23.382;2023-07-13T00:40:42;94652.78;;;21.49;100.00
10006;BME280;5042;42.626;23.382;2023-07-13T00:43:17;94638.72;;;21.32;100.00
10006;BME280;5042;42.626;23.382;2023-07-13T00:46:24;94647.91;;;21.41;100.00
10006;BME280;5042;42.626;23.382;2023-07-13T00:48:52;94656.81;;;21.30;100.00
10006;BME280;5042;42.626;23.382;2023-07-13T00:51:26;94648.94;;;21.40;100.00
10006;BME280;5042;42.626;23.382;2023-07-13T00:53:56;94643.94;;;21.44;100.00
10006;BME280;5042;42.626;23.382;2023-07-13T00:56:25;94641.81;;;21.46;100.00
10006;BME280;5042;42.626;23.382;2023-07-13T00:58:54;94639.72;;;21.48;100.00
10006;BME280;5042;42.626;23.382;2023-07-13T01:01:21;94643.75;;;21.50;100.00
10006;BME280;5042;42.626;23.382;2023-07-13T01:03:48;94633.28;;;21.22;100.00
10006;BME280;5042;42.626;23.382;2023-07-13T01:06:15;94644.81;;;21.05;100.00
10006;BME280;5042;42.626;23.382;2023-07-13T01:08:45;94631.31;;;20.95;100.00
10006;BME280;5042;42.626;23.382;2023-07-13T01:11:11;94637.16;;;20.92;100.00
10006;BME280;5042;42.626;23.382;2023-07-13T01:13:38;94635.69;;;21.01;100.00
10006;BME280;5042;42.626;23.382;2023-07-13T01:16:13;94634.56;;;20.97;100.00
10006;BME280;5042;42.626;23.382;2023-07-13T01:18:41;94641.31;;;20.83;100.00
10006;BME280;5042;42.626;23.382;2023-07-13T01:21:09;94613.84;;;20.60;100.00
10006;BME280;5042;42.626;23.382;2023-07-13T01:23:36;94641.59;;;20.64;100.00
10006;BME280;5042;42.626;23.382;2023-07-13T01:26:02;94620.78;;;20.44;100.00
10006;BME280;5042;42.626;23.382;2023-07-13T01:28:29;94639.25;;;20.68;100.00
10006;BME280;5042;42.626;23.382;2023-07-13T01:30:58;94640.47;;;20.60;100.00
10006;BME280;5042;42.626;23.382;2023-07-13T01:33:25;94635.06;;;20.55;100.00
10006;BME280;5042;42.626;23.382;2023-07-13T01:35:52;94625.63;;;20.30;100.00
10006;BME280;5042;42.626;23.382;2023-07-13T01:38:22;94644.34;;;20.36;100.00
10006;BME280;5042;42.626;23.382;2023-07-13T01:40:49;94638.06;;;20.42;100.00
10006;BME280;5042;42.626;23.382;2023-07-13T01:43:35;94643.53;;;20.35;100.00
10006;BME280;5042;42.626;23.382;2023-07-13T01:46:01;94632.09;;;20.34;100.00
10006;BME280;5042;42.626;23.382;2023-07-13T01:48:28;94638.06;;;20.42;100.00
10006;BME280;5042;42.626;23.382;2023-07-13T01:50:55;94630.63;;;20.44;100.00
10006;BME280;5042;42.626;23.382;2023-07-13T01:53:23;94636.44;;;20.41;100.00
10006;BME280;5042;42.626;23.382;2023-07-13T01:55:49;94637.84;;;20.26;100.00
10006;BME280;5042;42.626;23.382;2023-07-13T01:58:16;94631.59;;;20.21;100.00
10006;BME280;5042;42.626;23.382;2023-07-13T02:00:44;94628.88;;;20.16;100.00
10006;BME280;5042;42.626;23.382;2023-07-13T02:03:14;94639.44;;;20.10;100.00
10006;BME280;5042;42.626;23.382;2023-07-13T02:05:43;94635.50;;;20.13;100.00
10006;BME280;5042;42.626;23.382;2023-07-13T02:08:10;94635.50;;;20.13;100.00
10006;BME280;5042;42.626;23.382;2023-07-13T02:10:38;94638.22;;;20.18;100.00
10006;BME280;5042;42.626;23.382;2023-07-13T02:13:06;94613.06;;;20.09;100.00
10006;BME280;5042;42.626;23.382;2023-07-13T02:15:32;94638.72;;;20.15;100.00
10006;BME280;5042;42.626;23.382;2023-07-13T02:17:59;94641.69;;;20.19;100.00
10006;BME280;5042;42.626;23.382;2023-07-13T02:20:26;94644.44;;;20.24;100.00
10006;BME280;5042;42.626;23.382;2023-07-13T02:22:53;94640.50;;;20.26;100.00
10006;BME280;5042;42.626;23.382;2023-07-13T02:25:19;94637.28;;;20.24;100.00
10006;BME280;5042;42.626;23.382;2023-07-13T02:27:47;94642.75;;;20.34;100.00
10006;BME280;5042;42.626;23.382;2023-07-13T02:30:14;94649.03;;;20.28;100.00
10006;BME280;5042;42.626;23.382;2023-07-13T02:32:41;94643.06;;;20.21;100.00
10006;BME280;5042;42.626;23.382;2023-07-13T02:35:09;94655.81;;;20.19;100.00
10006;BME280;5042;42.626;23.382;2023-07-13T02:37:35;94644.63;;;20.17;100.00
10006;BME280;5042;42.626;23.382;2023-07-13T02:40:03;94650.31;;;20.26;100.00
10006;BME280;5042;42.626;23.382;2023-07-13T02:42:33;94651.69;;;20.28;100.00
10006;BME280;5042;42.626;23.382;2023-07-13T02:45:01;94642.66;;;20.29;100.00
10006;BME280;5042;42.626;23.382;2023-07-13T02:47:28;94644.03;;;20.32;100.00
10006;BME280;5042;42.626;23.382;2023-07-13T02:49:55;94647.56;;;20.38;100.00
10006;BME280;5042;42.626;23.382;2023-07-13T02:52:22;94648.13;;;20.40;100.00
10006;BME280;5042;42.626;23.382;2023-07-13T02:54:48;94649.09;;;20.50;100.00
10006;BME280;5042;42.626;23.382;2023-07-13T02:57:15;94644.97;;;20.43;100.00
10006;BME280;5042;42.626;23.382;2023-07-13T02:59:42;94655.31;;;20.39;100.00
10006;BME280;5042;42.626;23.382;2023-07-13T03:02:10;94644.50;;;20.46;100.00
10006;BME280;5042;42.626;23.382;2023-07-13T03:04:37;94651.94;;;20.44;100.00
10006;BME280;5042;42.626;23.382;2023-07-13T03:07:05;94657.41;;;20.37;100.00
10006;BME280;5042;42.626;23.382;2023-07-13T03:09:35;94645.41;;;20.34;100.00
10006;BME280;5042;42.626;23.382;2023-07-13T03:12:02;94656.38;;;20.55;100.00
10006;BME280;5042;42.626;23.382;2023-07-13T03:14:29;94660.00;;;20.49;100.00
10006;BME280;5042;42.626;23.382;2023-07-13T03:16:56;94649.28;;;20.44;100.00
10006;BME280;5042;42.626;23.382;2023-07-13T03:19:24;94656.13;;;20.40;100.00
10006;BME280;5042;42.626;23.382;2023-07-13T03:21:51;94664.19;;;20.45;100.00
10006;BME280;5042;42.626;23.382;2023-07-13T03:24:17;94664.13;;;20.40;100.00
10006;BME280;5042;42.626;23.382;2023-07-13T03:26:44;94666.94;;;20.33;100.00
10006;BME280;5042;42.626;23.382;2023-07-13T03:29:11;94630.72;;;20.15;100.00
10006;BME280;5042;42.626;23.382;2023-07-13T03:31:39;94617.25;;;20.05;100.00
10006;BME280;5042;42.626;23.382;2023-07-13T03:34:06;94666.53;;;20.41;100.00
10006;BME280;5042;42.626;23.382;2023-07-13T03:36:34;94664.69;;;20.42;100.00
10006;BME280;5042;42.626;23.382;2023-07-13T03:39:02;94651.78;;;20.33;100.00
10006;BME280;5042;42.626;23.382;2023-07-13T03:41:31;94668.94;;;20.43;100.00
10006;BME280;5042;42.626;23.382;2023-07-13T03:43:58;94662.97;;;20.36;100.00
10006;BME280;5042;42.626;23.382;2023-07-13T03:46:25;94664.69;;;20.42;100.00
10006;BME280;5042;42.626;23.382;2023-07-13T03:48:52;94610.97;;;20.11;100.00
10006;BME280;5042;42.626;23.382;2023-07-13T03:51:19;94656.25;;;20.50;100.00
10006;BME280;5042;42.626;23.382;2023-07-13T03:53:48;94647.91;;;20.58;100.00
10006;BME280;5042;42.626;23.382;2023-07-13T03:56:15;94640.63;;;20.53;100.00
10006;BME280;5042;42.626;23.382;2023-07-13T03:58:44;94651.78;;;20.67;100.00
10006;BME280;5042;42.626;23.382;2023-07-13T04:01:12;94647.63;;;20.77;100.00
10006;BME280;5042;42.626;23.382;2023-07-13T04:03:39;94654.34;;;21.01;100.00
10006;BME280;5042;42.626;23.382;2023-07-13T04:06:08;94635.63;;;20.96;100.00
10006;BME280;5042;42.626;23.382;2023-07-13T04:08:40;94665.81;;;21.24;100.00
10006;BME280;5042;42.626;23.382;2023-07-13T04:11:09;94661.28;;;21.24;100.00
10006;BME280;5042;42.626;23.382;2023-07-13T04:13:35;94667.38;;;21.42;100.00
10006;BME280;5042;42.626;23.382;2023-07-13T04:16:02;94652.59;;;21.56;100.00
10006;BME280;5042;42.626;23.382;2023-07-13T04:18:29;94665.84;;;21.73;100.00
10006;BME280;5042;42.626;23.382;2023-07-13T04:20:56;94665.09;;;22.05;100.00
10006;BME280;5042;42.626;23.382;2023-07-13T04:23:22;94664.63;;;22.45;100.00
10006;BME280;5042;42.626;23.382;2023-07-13T04:25:52;94609.09;;;22.47;100.00
10006;BME280;5042;42.626;23.382;2023-07-13T04:28:20;94677.34;;;23.18;100.00
10006;BME280;5042;42.626;23.382;2023-07-13T04:30:48;94687.22;;;23.07;100.00
10006;BME280;5042;42.626;23.382;2023-07-13T04:33:15;94678.66;;;23.05;100.00
10006;BME280;5042;42.626;23.382;2023-07-13T04:35:42;94697.59;;;23.61;100.00
10006;BME280;5042;42.626;23.382;2023-07-13T04:38:09;94683.53;;;24.02;100.00
10006;BME280;5042;42.626;23.382;2023-07-13T04:40:37;94678.50;;;24.51;100.00
10006;BME280;5042;42.626;23.382;2023-07-13T04:43:04;94695.03;;;25.00;100.00
10006;BME280;5042;42.626;23.382;2023-07-13T04:45:33;94694.09;;;25.50;100.00
10006;BME280;5042;42.626;23.382;2023-07-13T04:48:01;94699.56;;;25.90;100.00
10006;BME280;5042;42.626;23.382;2023-07-13T04:50:28;94696.25;;;26.08;100.00
10006;BME280;5042;42.626;23.382;2023-07-13T04:52:54;94708.41;;;26.35;100.00
10006;BME280;5042;42.626;23.382;2023-07-13T04:55:21;94709.94;;;26.80;99.40
10006;BME280;5042;42.626;23.382;2023-07-13T04:57:48;94719.84;;;27.19;93.69
10006;BME280;5042;42.626;23.382;2023-07-13T05:00:15;94719.38;;;27.36;92.83
10006;BME280;5042;42.626;23.382;2023-07-13T05:02:45;94718.63;;;27.74;89.62
10006;BME280;5042;42.626;23.382;2023-07-13T05:05:12;94728.31;;;28.18;89.95
10006;BME280;5042;42.626;23.382;2023-07-13T05:07:38;94723.66;;;28.04;86.79
10006;BME280;5042;42.626;23.382;2023-07-13T05:10:06;94729.56;;;28.25;88.25
10006;BME280;5042;42.626;23.382;2023-07-13T05:12:33;94728.84;;;28.39;82.18
10006;BME280;5042;42.626;23.382;2023-07-13T05:15:01;94729.47;;;28.30;82.28
10006;BME280;5042;42.626;23.382;2023-07-13T05:17:28;94733.88;;;28.26;84.03
10006;BME280;5042;42.626;23.382;2023-07-13T05:19:56;94736.19;;;28.14;82.93
10006;BME280;5042;42.626;23.382;2023-07-13T05:22:23;94734.34;;;28.09;84.81
10006;BME280;5042;42.626;23.382;2023-07-13T05:24:49;94736.59;;;27.83;85.72
10006;BME280;5042;42.626;23.382;2023-07-13T05:27:16;94730.94;;;28.04;90.17
10006;BME280;5042;42.626;23.382;2023-07-13T05:29:43;94741.09;;;28.50;85.92
10006;BME280;5042;42.626;23.382;2023-07-13T05:32:10;94739.63;;;28.90;83.86
10006;BME280;5042;42.626;23.382;2023-07-13T05:34:36;94736.41;;;29.35;80.16
10006;BME280;5042;42.626;23.382;2023-07-13T05:37:05;94740.22;;;29.34;81.21
10006;BME280;5042;42.626;23.382;2023-07-13T05:39:31;94736.84;;;29.28;84.47
10006;BME280;5042;42.626;23.382;2023-07-13T05:41:58;94737.44;;;29.06;80.86
10006;BME280;5042;42.626;23.382;2023-07-13T05:44:25;94737.47;;;28.73;84.75
10006;BME280;5042;42.626;23.382;2023-07-13T05:46:52;94741.34;;;29.00;84.56
10006;BME280;5042;42.626;23.382;2023-07-13T05:49:18;94738.13;;;29.17;84.95
10006;BME280;5042;42.626;23.382;2023-07-13T05:51:45;94737.66;;;29.43;82.36
10006;BME280;5042;42.626;23.382;2023-07-13T05:54:13;94738.03;;;29.91;82.30
10006;BME280;5042;42.626;23.382;2023-07-13T05:56:40;94751.25;;;29.65;80.03
10006;BME280;5042;42.626;23.382;2023-07-13T05:59:06;94742.59;;;29.08;85.45
10006;BME280;5042;42.626;23.382;2023-07-13T06:01:33;94740.34;;;28.96;85.15
10006;BME280;5042;42.626;23.382;2023-07-13T06:04:00;94741.25;;;29.38;88.44
10006;BME280;5042;42.626;23.382;2023-07-13T06:06:27;94739.44;;;29.89;81.49
10006;BME280;5042;42.626;23.382;2023-07-13T06:08:53;94732.78;;;30.09;81.44
10006;BME280;5042;42.626;23.382;2023-07-13T06:11:23;94726.06;;;30.34;84.02
10006;BME280;5042;42.626;23.382;2023-07-13T06:13:50;94715.53;;;30.32;77.56
10006;BME280;5042;42.626;23.382;2023-07-13T06:16:17;94698.25;;;29.69;79.37
10006;BME280;5042;42.626;23.382;2023-07-13T06:18:45;94729.31;;;29.94;79.72
10006;BME280;5042;42.626;23.382;2023-07-13T06:21:14;94718.56;;;30.17;82.27
10006;BME280;5042;42.626;23.382;2023-07-13T06:23:41;94733.19;;;30.16;81.61
10006;BME280;5042;42.626;23.382;2023-07-13T06:26:08;94743.16;;;30.43;79.49
10006;BME280;5042;42.626;23.382;2023-07-13T06:28:37;94751.03;;;30.90;79.82
10006;BME280;5042;42.626;23.382;2023-07-13T06:31:05;94732.00;;;31.35;79.29
10006;BME280;5042;42.626;23.382;2023-07-13T06:33:33;94739.84;;;31.45;71.34
10006;BME280;5042;42.626;23.382;2023-07-13T06:36:00;94732.28;;;31.64;71.72
10006;BME280;5042;42.626;23.382;2023-07-13T06:38:27;94739.34;;;31.83;68.40
10006;BME280;5042;42.626;23.382;2023-07-13T06:40:54;94740.22;;;32.27;67.78
10006;BME280;5042;42.626;23.382;2023-07-13T06:43:21;94743.91;;;32.48;61.51
10006;BME280;5042;42.626;23.382;2023-07-13T06:45:49;94736.84;;;31.95;63.06
10006;BME280;5042;42.626;23.382;2023-07-13T06:48:17;94743.28;;;32.25;66.44
10006;BME280;5042;42.626;23.382;2023-07-13T06:50:44;94743.91;;;32.48;69.50
10006;BME280;5042;42.626;23.382;2023-07-13T06:53:12;94741.53;;;31.63;63.96
10006;BME280;5042;42.626;23.382;2023-07-13T06:55:39;94707.50;;;30.63;67.23
10006;BME280;5042;42.626;23.382;2023-07-13T06:58:06;94730.69;;;30.06;70.49
10006;BME280;5042;42.626;23.382;2023-07-13T07:00:33;94740.84;;;30.00;70.79
10006;BME280;5042;42.626;23.382;2023-07-13T07:03:01;94730.50;;;30.52;70.80
10006;BME280;5042;42.626;23.382;2023-07-13T07:05:27;94732.16;;;31.07;68.58
10006;BME280;5042;42.626;23.382;2023-07-13T07:07:55;94729.75;;;31.37;69.46
10006;BME280;5042;42.626;23.382;2023-07-13T07:10:22;94729.72;;;30.97;73.31
10006;BME280;5042;42.626;23.382;2023-07-13T07:12:49;94737.56;;;31.07;70.28
10006;BME280;5042;42.626;23.382;2023-07-13T07:15:16;94744.56;;;31.31;76.88
10006;BME280;5042;42.626;23.382;2023-07-13T07:17:43;94744.06;;;31.28;70.93
10006;BME280;5042;42.626;23.382;2023-07-13T07:20:11;94740.50;;;31.19;73.03
10006;BME280;5042;42.626;23.382;2023-07-13T07:22:38;94742.28;;;30.93;70.29
10006;BME280;5042;42.626;23.382;2023-07-13T07:25:05;94737.78;;;31.51;72.05
10006;BME280;5042;42.626;23.382;2023-07-13T07:27:32;94643.06;;;31.37;67.64
10006;BME280;5042;42.626;23.382;2023-07-13T07:29:59;94744.47;;;31.93;63.14
10006;BME280;5042;42.626;23.382;2023-07-13T07:32:28;94738.94;;;31.58;65.91
10006;BME280;5042;42.626;23.382;2023-07-13T07:34:55;94742.44;;;31.99;63.11
10006;BME280;5042;42.626;23.382;2023-07-13T07:37:23;94701.44;;;32.00;62.32
10006;BME280;5042;42.626;23.382;2023-07-13T07:39:50;94740.09;;;32.49;64.18
10006;BME280;5042;42.626;23.382;2023-07-13T07:42:17;94729.09;;;32.72;64.89
10006;BME280;5042;42.626;23.382;2023-07-13T07:44:44;94724.59;;;33.11;63.30
10006;BME280;5042;42.626;23.382;2023-07-13T07:47:10;94737.34;;;33.66;59.67
10006;BME280;5042;42.626;23.382;2023-07-13T07:49:37;94739.47;;;34.20;56.78
10006;BME280;5042;42.626;23.382;2023-07-13T07:52:05;94725.47;;;34.30;63.99
10006;BME280;5042;42.626;23.382;2023-07-13T07:54:33;94726.38;;;33.84;60.90
10006;BME280;5042;42.626;23.382;2023-07-13T07:57:00;94721.47;;;33.98;75.43
10006;BME280;5042;42.626;23.382;2023-07-13T07:59:27;94727.13;;;34.23;61.97
10006;BME280;5042;42.626;23.382;2023-07-13T08:01:53;94723.00;;;34.58;60.36
10006;BME280;5042;42.626;23.382;2023-07-13T08:04:20;94723.69;;;34.55;56.79
10006;BME280;5042;42.626;23.382;2023-07-13T08:06:47;94725.78;;;34.08;57.91
10006;BME280;5042;42.626;23.382;2023-07-13T08:09:13;94707.72;;;34.03;58.01
10006;BME280;5042;42.626;23.382;2023-07-13T08:11:41;94692.53;;;33.34;62.27
10006;BME280;5042;42.626;23.382;2023-07-13T08:14:08;94696.69;;;32.76;60.35
10006;BME280;5042;42.626;23.382;2023-07-13T08:16:35;94694.56;;;32.81;68.89
10006;BME280;5042;42.626;23.382;2023-07-13T08:19:02;94696.75;;;33.23;66.31
10006;BME280;5042;42.626;23.382;2023-07-13T08:21:29;94691.59;;;32.39;63.13
10006;BME280;5042;42.626;23.382;2023-07-13T08:23:56;94684.13;;;31.70;64.31
10006;BME280;5042;42.626;23.382;2023-07-13T08:26:23;94679.28;;;32.16;65.54
10006;BME280;5042;42.626;23.382;2023-07-13T08:28:51;94677.72;;;32.58;73.89
10006;BME280;5042;42.626;23.382;2023-07-13T08:31:17;94680.22;;;32.81;67.02
10006;BME280;5042;42.626;23.382;2023-07-13T08:33:44;94676.59;;;32.50;65.67
10006;BME280;5042;42.626;23.382;2023-07-13T08:36:11;94673.06;;;32.06;68.40
10006;BME280;5042;42.626;23.382;2023-07-13T08:38:38;94682.31;;;32.40;76.02
10006;BME280;5042;42.626;23.382;2023-07-13T08:41:11;94668.44;;;32.50;63.97
10006;BME280;5042;42.626;23.382;2023-07-13T08:43:38;94671.69;;;33.00;70.74
10006;BME280;5042;42.626;23.382;2023-07-13T08:46:11;94681.72;;;33.55;65.75
10006;BME280;5042;42.626;23.382;2023-07-13T08:48:42;94671.22;;;34.04;66.11
10006;BME280;5042;42.626;23.382;2023-07-13T08:51:21;94669.38;;;34.17;60.79
10006;BME280;5042;42.626;23.382;2023-07-13T08:53:54;94671.97;;;34.34;60.42
10006;BME280;5042;42.626;23.382;2023-07-13T08:56:28;94677.03;;;34.78;56.26
10006;BME280;5042;42.626;23.382;2023-07-13T08:58:56;94676.75;;;35.04;55.98
10006;BME280;5042;42.626;23.382;2023-07-13T09:01:31;94678.41;;;34.30;58.76
10006;BME280;5042;42.626;23.382;2023-07-13T09:04:05;94685.41;;;34.52;54.44
10006;BME280;5042;42.626;23.382;2023-07-13T09:06:43;94686.84;;;34.16;54.19
10006;BME280;5042;42.626;23.382;2023-07-13T09:09:20;94696.53;;;33.75;54.90
10006;BME280;5042;42.626;23.382;2023-07-13T09:11:55;94700.38;;;34.46;66.75
10006;BME280;5042;42.626;23.382;2023-07-13T09:14:34;94710.13;;;34.68;54.00
10006;BME280;5042;42.626;23.382;2023-07-13T09:17:05;94710.84;;;34.56;53.92
10006;BME280;5042;42.626;23.382;2023-07-13T09:19:35;94715.22;;;34.69;55.72
10006;BME280;5042;42.626;23.382;2023-07-13T09:22:04;94689.88;;;34.14;51.64
10006;BME280;5042;42.626;23.382;2023-07-13T09:24:36;94699.84;;;33.81;54.18
10006;BME280;5042;42.626;23.382;2023-07-13T09:27:10;94711.38;;;33.77;53.17
10006;BME280;5042;42.626;23.382;2023-07-13T09:29:41;94699.69;;;33.38;60.16
10006;BME280;5042;42.626;23.382;2023-07-13T09:32:12;94711.94;;;33.92;62.20
10006;BME280;5042;42.626;23.382;2023-07-13T09:34:41;94708.28;;;34.17;55.73
10006;BME280;5042;42.626;23.382;2023-07-13T09:37:07;94715.25;;;34.48;55.82
10006;BME280;5042;42.626;23.382;2023-07-13T09:39:37;94718.09;;;34.73;59.02
10006;BME280;5042;42.626;23.382;2023-07-13T09:42:13;94716.19;;;35.19;54.55
10006;BME280;5042;42.626;23.382;2023-07-13T09:44:51;94701.94;;;35.59;58.78
10006;BME280;5042;42.626;23.382;2023-07-13T09:47:21;94704.03;;;35.62;53.33
10006;BME280;5042;42.626;23.382;2023-07-13T09:49:54;94691.75;;;35.68;53.19
10006;BME280;5042;42.626;23.382;2023-07-13T09:52:21;94706.28;;;35.84;51.49
10006;BME280;5042;42.626;23.382;2023-07-13T09:54:50;94695.56;;;35.18;51.33
10006;BME280;5042;42.626;23.382;2023-07-13T09:57:18;94691.13;;;35.25;51.33
10006;BME280;5042;42.626;23.382;2023-07-13T09:59:46;94685.25;;;35.48;53.79
10006;BME280;5042;42.626;23.382;2023-07-13T10:02:30;94671.72;;;35.52;50.21
10006;BME280;5042;42.626;23.382;2023-07-13T10:05:00;94682.16;;;35.99;58.96
10006;BME280;5042;42.626;23.382;2023-07-13T10:07:28;94614.31;;;34.99;48.69
10006;BME280;5042;42.626;23.382;2023-07-13T10:09:56;94681.47;;;35.16;47.52
10006;BME280;5042;42.626;23.382;2023-07-13T10:12:24;94669.94;;;34.98;51.11
10006;BME280;5042;42.626;23.382;2023-07-13T10:14:52;94650.38;;;35.17;56.05
10006;BME280;5042;42.626;23.382;2023-07-13T10:17:26;94646.94;;;35.57;57.22
10006;BME280;5042;42.626;23.382;2023-07-13T10:19:58;94668.34;;;35.79;49.04
10006;BME280;5042;42.626;23.382;2023-07-13T10:22:29;94663.13;;;35.74;49.71
10006;BME280;5042;42.626;23.382;2023-07-13T10:24:59;94649.47;;;35.86;54.34
10006;BME280;5042;42.626;23.382;2023-07-13T10:27:31;94646.22;;;36.09;59.58
10006;BME280;5042;42.626;23.382;2023-07-13T10:30:03;94655.41;;;36.29;48.70
10006;BME280;5042;42.626;23.382;2023-07-13T10:32:34;94662.84;;;35.92;46.03
10006;BME280;5042;42.626;23.382;2023-07-13T10:35:02;94606.88;;;35.33;48.95
10006;BME280;5042;42.626;23.382;2023-07-13T10:37:35;94646.63;;;35.46;48.09
10006;BME280;5042;42.626;23.382;2023-07-13T10:40:11;94650.03;;;35.55;51.56
10006;BME280;5042;42.626;23.382;2023-07-13T10:42:43;94637.19;;;35.43;50.07
10006;BME280;5042;42.626;23.382;2023-07-13T10:45:14;94643.13;;;35.45;48.70
10006;BME280;5042;42.626;23.382;2023-07-13T10:47:41;94635.84;;;35.25;46.26
10006;BME280;5042;42.626;23.382;2023-07-13T10:50:17;94637.59;;;34.96;49.07
10006;BME280;5042;42.626;23.382;2023-07-13T10:52:46;94634.53;;;34.98;45.63
10006;BME280;5042;42.626;23.382;2023-07-13T10:55:36;94623.91;;;35.17;45.44
10006;BME280;5042;42.626;23.382;2023-07-13T10:58:13;94615.97;;;35.37;46.82
10006;BME280;5042;42.626;23.382;2023-07-13T11:00:47;94606.75;;;35.41;44.38
10006;BME280;5042;42.626;23.382;2023-07-13T11:03:18;94613.56;;;35.23;44.17
10006;BME280;5042;42.626;23.382;2023-07-13T11:05:50;94585.63;;;35.26;48.14
10006;BME280;5042;42.626;23.382;2023-07-13T11:08:21;94603.22;;;35.78;47.85
10006;BME280;5042;42.626;23.382;2023-07-13T11:10:58;94601.50;;;35.73;43.46
10006;BME280;5042;42.626;23.382;2023-07-13T11:16:36;94553.16;;;35.21;47.85
10006;BME280;5042;42.626;23.382;2023-07-13T11:22:42;94571.22;;;35.25;50.55
10006;BME280;5042;42.626;23.382;2023-07-13T11:25:27;94580.59;;;35.77;44.83
10006;BME280;5042;42.626;23.382;2023-07-13T11:28:11;94581.88;;;36.08;44.58
10006;BME280;5042;42.626;23.382;2023-07-13T11:30:42;94586.69;;;35.99;40.88
10006;BME280;5042;42.626;23.382;2023-07-13T11:33:20;94577.31;;;35.72;43.58
10006;BME280;5042;42.626;23.382;2023-07-13T11:36:03;94572.91;;;35.55;44.17
10006;BME280;5042;42.626;23.382;2023-07-13T11:38:36;94575.28;;;35.56;42.48
10006;BME280;5042;42.626;23.382;2023-07-13T11:41:06;94578.31;;;35.79;44.58
10006;BME280;5042;42.626;23.382;2023-07-13T11:43:33;94581.34;;;36.02;39.53
10006;BME280;5042;42.626;23.382;2023-07-13T11:46:15;94574.16;;;36.10;40.50
10006;BME280;5042;42.626;23.382;2023-07-13T11:48:44;94563.56;;;36.08;39.69
10006;BME280;5042;42.626;23.382;2023-07-13T11:51:19;94563.31;;;35.73;40.12
10006;BME280;5042;42.626;23.382;2023-07-13T11:53:50;94566.09;;;35.61;41.37
10006;BME280;5042;42.626;23.382;2023-07-13T11:56:18;94557.91;;;35.49;41.83
10006;BME280;5042;42.626;23.382;2023-07-13T11:58:48;94560.88;;;35.43;39.72
10006;BME280;5042;42.626;23.382;2023-07-13T12:01:19;94567.69;;;35.37;39.75
10006;BME280;5042;42.626;23.382;2023-07-13T12:03:47;94557.94;;;35.24;42.18
10006;BME280;5042;42.626;23.382;2023-07-13T12:06:26;94557.47;;;35.34;40.15
10006;BME280;5042;42.626;23.382;2023-07-13T12:08:58;94544.72;;;35.51;38.19
10006;BME280;5042;42.626;23.382;2023-07-13T12:11:26;94547.78;;;35.49;39.64
10006;BME280;5042;42.626;23.382;2023-07-13T12:13:53;94542.47;;;35.53;40.68
10006;BME280;5042;42.626;23.382;2023-07-13T12:16:28;94547.75;;;35.74;39.04
10006;BME280;5042;42.626;23.382;2023-07-13T12:18:56;94524.28;;;35.44;38.63
10006;BME280;5042;42.626;23.382;2023-07-13T12:21:30;94539.72;;;35.53;40.87
10006;BME280;5042;42.626;23.382;2023-07-13T12:23:59;94528.25;;;35.72;41.50
10006;BME280;5042;42.626;23.382;2023-07-13T12:26:28;94513.38;;;35.69;39.71
10006;BME280;5042;42.626;23.382;2023-07-13T12:28:56;94520.59;;;35.77;41.17
10006;BME280;5042;42.626;23.382;2023-07-13T12:31:26;94523.78;;;36.07;42.30
10006;BME280;5042;42.626;23.382;2023-07-13T12:33:57;94520.41;;;36.26;41.47
10006;BME280;5042;42.626;23.382;2023-07-13T12:36:25;94512.16;;;36.39;42.97
10006;BME280;5042;42.626;23.382;2023-07-13T12:38:52;94520.22;;;36.19;36.85
10006;BME280;5042;42.626;23.382;2023-07-13T12:41:20;94526.84;;;36.06;36.40
10006;BME280;5042;42.626;23.382;2023-07-13T12:43:48;94514.00;;;35.78;36.66
10006;BME280;5042;42.626;23.382;2023-07-13T12:46:18;94508.50;;;35.62;37.75
10006;BME280;5042;42.626;23.382;2023-07-13T12:48:49;94499.88;;;35.48;36.72
10006;BME280;5042;42.626;23.382;2023-07-13T12:51:16;94471.25;;;35.42;39.31
10006;BME280;5042;42.626;23.382;2023-07-13T12:53:47;94500.75;;;35.93;37.84
10006;BME280;5042;42.626;23.382;2023-07-13T12:56:20;94487.88;;;36.05;38.04
10006;BME280;5042;42.626;23.382;2023-07-13T12:58:48;94487.94;;;36.09;37.10
10006;BME280;5042;42.626;23.382;2023-07-13T13:01:21;94501.06;;;36.32;37.26
10006;BME280;5042;42.626;23.382;2023-07-13T13:03:50;94488.78;;;36.09;36.67
10006;BME280;5042;42.626;23.382;2023-07-13T13:06:22;94479.94;;;35.72;36.51
10006;BME280;5042;42.626;23.382;2023-07-13T13:08:51;94489.88;;;35.40;37.78
10006;BME280;5042;42.626;23.382;2023-07-13T13:11:19;94477.50;;;35.42;38.96
10006;BME280;5042;42.626;23.382;2023-07-13T13:13:47;94479.25;;;35.75;37.33